Bruceton Mills, WV (26525)

9:43 PM EST on November 18, 2017 (GMT -0500)
Bruceton Mills | | Change Station
Active Advisory: Wind Advisory

Elev 1627 ft 39.63 °N, 79.64 °W | Updated 1 minute ago

Rain
Rain
58.4 °F
Feels Like 58.4 °F
N
20.0
Wind Variable Wind from SW

Today
High -- | Low -- °F
--% Chance of Precip.
Yesterday
High -- | Low -- °F
Precip. -- in
Pressure 29.29 in
Visibility 7.0 miles
Clouds Mostly Cloudy 3800 ft
Overcast 4500 ft
Dew Point 55 °F
Humidity 91%
Rainfall 0.94 in
Snow Depth Not available.
7:06 AM 5:00 PM
New Moon, 0% visible
METAR KMGW 190153Z 21012G24KT 7SM -RA BKN038 OVC045 17/11 A2930 RMK AO2 PK WND 20027/0113 RAE00B34 SLP919 P0002 T01720111
Pressure 29.29 in
Visibility 7.0 miles
Clouds Mostly Cloudy 3800 ft
Overcast 4500 ft
Dew Point 55 °F
Humidity 91%
Rainfall 0.94 in
Snow Depth Not available.
7:06 AM 5:00 PM
New Moon, 0% visible
METAR KMGW 190153Z 21012G24KT 7SM -RA BKN038 OVC045 17/11 A2930 RMK AO2 PK WND 20027/0113 RAE00B34 SLP919 P0002 T01720111

Get Your Daily Forecast Email!

Thanks for signing up!

Be on the lookout for a verification email in your inbox.

You'll start receiving severe weather alerts in your inbox..

×

10-Day Weather Forecast

Almanac

Astronomy

Nov. 18, 2017 Rise Set
Actual Time
Civil Twilight
Nautical Twilight
Astronomical Twilight
Moon
Length of Visible Light
Length of Day
Tomorrow will be .
, % of the Moon is Illuminated

Today's Extremes

State Highs State Lows

Community

WunderPhotos

Category 6

Welcome to Category 6. This is the collective home for Weather Underground's featured writeups by Dr. Jeff Masters (right), Bob Henson (left), Chris Burt, and other regular contributors.

Nearby

Air Quality

  Air Quality AQ Index Pollutant
Not available.

Snow Depth

Station Depth Elevation

Earthquake Activity

City Distance Mag. Time & Date
Minimum magnitude displayed is 2.5.

Coastal Water Temperatures

Place Temperature

Stations

Nearby Weather Stations

Station Location Temp. Windchill Dew Point Humidity Wind Precip. Elev Updated Type
                   

Watches & Warnings

Wind Advisory
Issued: 6:37 PM EST Nov. 18, 2017 – National Weather Service

... Wind Advisory remains in effect until 10 am EST Sunday...

* winds... west 25 to 30 mph with gusts up to 50 mph.

* Timing... through Sunday morning with the strongest gusts from
10 PM until 6 am.

* Impacts... strong winds may blow down limbs, trees, and power
lines. Scattered power outages are expected.

Precautionary/preparedness actions...

A Wind Advisory means that wind speeds greater than 30 mph, or
gusts in excess of 45 mph are expected. Winds this strong can
make driving difficult, especially for high profile vehicles. Use
extra caution.

Please report down trees or branches by calling 412-262-1988,
posting to the NWS Pittsburgh facebook Page, or using twitter
@nwspittsburgh


34